sensor_id;sensor_type;location;lat;lon;timestamp;P1;durP1;ratioP1;P2;durP2;ratioP2
76351;SDS011;65179;47.786;19.138;2023-02-20T00:00:20;4.97;;;1.30;;
76351;SDS011;65179;47.786;19.138;2023-02-20T00:02:48;3.42;;;1.15;;
76351;SDS011;65179;47.786;19.138;2023-02-20T00:05:14;4.05;;;1.20;;
76351;SDS011;65179;47.786;19.138;2023-02-20T00:07:41;3.67;;;1.20;;
76351;SDS011;65179;47.786;19.138;2023-02-20T00:10:07;4.65;;;1.30;;
76351;SDS011;65179;47.786;19.138;2023-02-20T00:12:32;3.85;;;1.10;;
76351;SDS011;65179;47.786;19.138;2023-02-20T00:14:58;4.87;;;1.23;;
76351;SDS011;65179;47.786;19.138;2023-02-20T00:17:23;4.10;;;1.10;;
76351;SDS011;65179;47.786;19.138;2023-02-20T00:19:49;5.62;;;1.60;;
76351;SDS011;65179;47.786;19.138;2023-02-20T00:22:15;4.60;;;1.20;;
76351;SDS011;65179;47.786;19.138;2023-02-20T00:24:40;3.57;;;1.20;;
76351;SDS011;65179;47.786;19.138;2023-02-20T00:27:06;5.40;;;1.40;;
76351;SDS011;65179;47.786;19.138;2023-02-20T00:29:32;5.33;;;1.10;;
76351;SDS011;65179;47.786;19.138;2023-02-20T00:31:57;4.30;;;1.23;;
76351;SDS011;65179;47.786;19.138;2023-02-20T00:34:24;3.77;;;1.47;;
76351;SDS011;65179;47.786;19.138;2023-02-20T00:36:51;3.33;;;1.25;;
76351;SDS011;65179;47.786;19.138;2023-02-20T00:39:17;3.57;;;1.20;;
76351;SDS011;65179;47.786;19.138;2023-02-20T00:41:42;3.35;;;1.10;;
76351;SDS011;65179;47.786;19.138;2023-02-20T00:44:08;4.43;;;1.42;;
76351;SDS011;65179;47.786;19.138;2023-02-20T00:46:33;6.17;;;1.50;;
76351;SDS011;65179;47.786;19.138;2023-02-20T00:48:59;5.20;;;1.30;;
76351;SDS011;65179;47.786;19.138;2023-02-20T00:51:25;5.40;;;1.50;;
76351;SDS011;65179;47.786;19.138;2023-02-20T00:53:50;4.60;;;1.20;;
76351;SDS011;65179;47.786;19.138;2023-02-20T00:56:16;5.53;;;1.50;;
76351;SDS011;65179;47.786;19.138;2023-02-20T00:58:41;5.20;;;1.30;;
76351;SDS011;65179;47.786;19.138;2023-02-20T01:01:07;5.03;;;1.37;;
76351;SDS011;65179;47.786;19.138;2023-02-20T01:03:33;3.67;;;1.30;;
76351;SDS011;65179;47.786;19.138;2023-02-20T01:05:58;3.95;;;1.35;;
76351;SDS011;65179;47.786;19.138;2023-02-20T01:08:24;4.13;;;1.57;;
76351;SDS011;65179;47.786;19.138;2023-02-20T01:10:49;4.87;;;1.30;;
76351;SDS011;65179;47.786;19.138;2023-02-20T01:13:15;5.17;;;1.50;;
76351;SDS011;65179;47.786;19.138;2023-02-20T01:15:41;5.12;;;1.30;;
76351;SDS011;65179;47.786;19.138;2023-02-20T01:18:06;4.17;;;1.33;;
76351;SDS011;65179;47.786;19.138;2023-02-20T01:20:32;5.03;;;1.62;;
76351;SDS011;65179;47.786;19.138;2023-02-20T01:22:58;4.07;;;1.50;;
76351;SDS011;65179;47.786;19.138;2023-02-20T01:25:23;4.53;;;1.33;;
76351;SDS011;65179;47.786;19.138;2023-02-20T01:27:49;3.75;;;1.20;;
76351;SDS011;65179;47.786;19.138;2023-02-20T01:30:14;4.03;;;1.30;;
76351;SDS011;65179;47.786;19.138;2023-02-20T01:32:40;3.67;;;1.48;;
76351;SDS011;65179;47.786;19.138;2023-02-20T01:35:06;4.47;;;1.40;;
76351;SDS011;65179;47.786;19.138;2023-02-20T01:37:32;4.35;;;1.30;;
76351;SDS011;65179;47.786;19.138;2023-02-20T01:39:57;5.20;;;1.13;;
76351;SDS011;65179;47.786;19.138;2023-02-20T01:42:23;3.37;;;1.10;;
76351;SDS011;65179;47.786;19.138;2023-02-20T01:44:50;3.87;;;1.58;;
76351;SDS011;65179;47.786;19.138;2023-02-20T01:47:25;5.47;;;1.58;;
76351;SDS011;65179;47.786;19.138;2023-02-20T01:49:54;4.78;;;1.35;;
76351;SDS011;65179;47.786;19.138;2023-02-20T01:52:25;3.70;;;1.37;;
76351;SDS011;65179;47.786;19.138;2023-02-20T01:54:58;5.53;;;1.20;;
76351;SDS011;65179;47.786;19.138;2023-02-20T01:57:28;5.65;;;1.35;;
76351;SDS011;65179;47.786;19.138;2023-02-20T01:59:58;4.85;;;1.37;;
76351;SDS011;65179;47.786;19.138;2023-02-20T02:02:30;7.87;;;2.67;;
76351;SDS011;65179;47.786;19.138;2023-02-20T02:04:59;4.32;;;1.40;;
76351;SDS011;65179;47.786;19.138;2023-02-20T02:07:26;4.93;;;1.60;;
76351;SDS011;65179;47.786;19.138;2023-02-20T02:09:57;4.22;;;1.50;;
76351;SDS011;65179;47.786;19.138;2023-02-20T02:12:26;4.95;;;1.23;;
76351;SDS011;65179;47.786;19.138;2023-02-20T02:14:52;5.22;;;1.40;;
76351;SDS011;65179;47.786;19.138;2023-02-20T02:23:05;5.00;;;1.50;;
76351;SDS011;65179;47.786;19.138;2023-02-20T02:39:43;5.45;;;1.92;;
76351;SDS011;65179;47.786;19.138;2023-02-20T02:44:59;5.03;;;1.40;;
76351;SDS011;65179;47.786;19.138;2023-02-20T02:50:11;5.85;;;1.90;;
76351;SDS011;65179;47.786;19.138;2023-02-20T02:52:58;5.55;;;1.70;;
76351;SDS011;65179;47.786;19.138;2023-02-20T02:55:26;5.93;;;1.70;;
76351;SDS011;65179;47.786;19.138;2023-02-20T02:57:53;4.13;;;1.53;;
76351;SDS011;65179;47.786;19.138;2023-02-20T03:05:13;4.82;;;1.75;;
76351;SDS011;65179;47.786;19.138;2023-02-20T03:07:42;4.55;;;1.70;;
76351;SDS011;65179;47.786;19.138;2023-02-20T03:10:11;4.00;;;1.55;;
76351;SDS011;65179;47.786;19.138;2023-02-20T03:12:44;4.68;;;1.67;;
76351;SDS011;65179;47.786;19.138;2023-02-20T03:20:53;4.43;;;1.80;;
76351;SDS011;65179;47.786;19.138;2023-02-20T03:23:25;5.80;;;1.90;;
76351;SDS011;65179;47.786;19.138;2023-02-20T03:26:03;3.80;;;1.70;;
76351;SDS011;65179;47.786;19.138;2023-02-20T03:28:41;6.93;;;2.00;;
76351;SDS011;65179;47.786;19.138;2023-02-20T03:31:11;4.82;;;1.90;;
76351;SDS011;65179;47.786;19.138;2023-02-20T03:33:42;5.87;;;1.87;;
76351;SDS011;65179;47.786;19.138;2023-02-20T03:36:38;5.80;;;1.85;;
76351;SDS011;65179;47.786;19.138;2023-02-20T03:39:29;5.70;;;2.20;;
76351;SDS011;65179;47.786;19.138;2023-02-20T03:42:16;5.50;;;1.90;;
76351;SDS011;65179;47.786;19.138;2023-02-20T03:45:04;7.53;;;1.90;;
76351;SDS011;65179;47.786;19.138;2023-02-20T03:47:30;5.47;;;2.20;;
76351;SDS011;65179;47.786;19.138;2023-02-20T03:49:58;4.47;;;1.85;;
76351;SDS011;65179;47.786;19.138;2023-02-20T03:52:25;4.37;;;1.77;;
76351;SDS011;65179;47.786;19.138;2023-02-20T03:54:51;5.87;;;2.12;;
76351;SDS011;65179;47.786;19.138;2023-02-20T03:57:19;5.35;;;2.17;;
76351;SDS011;65179;47.786;19.138;2023-02-20T03:59:54;5.30;;;1.90;;
76351;SDS011;65179;47.786;19.138;2023-02-20T04:02:26;5.18;;;2.20;;
76351;SDS011;65179;47.786;19.138;2023-02-20T04:04:56;4.78;;;2.10;;
76351;SDS011;65179;47.786;19.138;2023-02-20T04:07:42;6.12;;;2.45;;
76351;SDS011;65179;47.786;19.138;2023-02-20T04:10:15;5.80;;;2.42;;
76351;SDS011;65179;47.786;19.138;2023-02-20T04:12:46;5.10;;;2.03;;
76351;SDS011;65179;47.786;19.138;2023-02-20T04:15:13;5.80;;;2.30;;
76351;SDS011;65179;47.786;19.138;2023-02-20T04:17:44;6.07;;;2.17;;
76351;SDS011;65179;47.786;19.138;2023-02-20T04:20:14;4.50;;;1.83;;
76351;SDS011;65179;47.786;19.138;2023-02-20T04:22:41;5.68;;;2.10;;
76351;SDS011;65179;47.786;19.138;2023-02-20T04:25:29;5.70;;;2.00;;
76351;SDS011;65179;47.786;19.138;2023-02-20T04:28:08;5.43;;;2.15;;
76351;SDS011;65179;47.786;19.138;2023-02-20T04:30:35;5.97;;;2.00;;
76351;SDS011;65179;47.786;19.138;2023-02-20T04:33:00;6.97;;;2.47;;
76351;SDS011;65179;47.786;19.138;2023-02-20T04:35:26;4.90;;;2.30;;
76351;SDS011;65179;47.786;19.138;2023-02-20T04:37:52;5.05;;;2.62;;
76351;SDS011;65179;47.786;19.138;2023-02-20T04:40:18;5.93;;;2.40;;
76351;SDS011;65179;47.786;19.138;2023-02-20T04:42:45;5.12;;;2.60;;
76351;SDS011;65179;47.786;19.138;2023-02-20T04:45:11;5.27;;;2.40;;
76351;SDS011;65179;47.786;19.138;2023-02-20T04:47:36;7.63;;;2.67;;
76351;SDS011;65179;47.786;19.138;2023-02-20T04:50:02;6.23;;;2.77;;
76351;SDS011;65179;47.786;19.138;2023-02-20T04:52:28;6.62;;;2.62;;
76351;SDS011;65179;47.786;19.138;2023-02-20T04:54:53;6.27;;;2.30;;
76351;SDS011;65179;47.786;19.138;2023-02-20T04:57:19;5.55;;;2.12;;
76351;SDS011;65179;47.786;19.138;2023-02-20T04:59:44;5.10;;;2.10;;
76351;SDS011;65179;47.786;19.138;2023-02-20T05:02:10;4.80;;;2.13;;
76351;SDS011;65179;47.786;19.138;2023-02-20T05:04:35;5.85;;;2.20;;
76351;SDS011;65179;47.786;19.138;2023-02-20T05:07:01;5.23;;;2.10;;
76351;SDS011;65179;47.786;19.138;2023-02-20T05:09:27;7.30;;;2.40;;
76351;SDS011;65179;47.786;19.138;2023-02-20T05:11:52;5.85;;;2.42;;
76351;SDS011;65179;47.786;19.138;2023-02-20T05:14:18;5.43;;;2.37;;
76351;SDS011;65179;47.786;19.138;2023-02-20T05:16:45;5.72;;;2.30;;
76351;SDS011;65179;47.786;19.138;2023-02-20T05:19:11;5.05;;;2.45;;
76351;SDS011;65179;47.786;19.138;2023-02-20T05:21:40;9.02;;;2.55;;
76351;SDS011;65179;47.786;19.138;2023-02-20T05:24:25;5.07;;;2.03;;
76351;SDS011;65179;47.786;19.138;2023-02-20T05:26:52;5.82;;;2.60;;
76351;SDS011;65179;47.786;19.138;2023-02-20T05:29:19;5.20;;;2.20;;
76351;SDS011;65179;47.786;19.138;2023-02-20T05:31:44;8.87;;;2.50;;
76351;SDS011;65179;47.786;19.138;2023-02-20T05:34:10;5.57;;;2.37;;
76351;SDS011;65179;47.786;19.138;2023-02-20T05:36:35;6.03;;;2.20;;
76351;SDS011;65179;47.786;19.138;2023-02-20T05:39:01;6.97;;;2.60;;
76351;SDS011;65179;47.786;19.138;2023-02-20T05:41:28;5.20;;;2.30;;
76351;SDS011;65179;47.786;19.138;2023-02-20T05:43:53;7.37;;;2.30;;
76351;SDS011;65179;47.786;19.138;2023-02-20T05:46:21;5.93;;;2.60;;
76351;SDS011;65179;47.786;19.138;2023-02-20T05:48:50;5.62;;;2.62;;
76351;SDS011;65179;47.786;19.138;2023-02-20T05:51:23;6.80;;;2.75;;
76351;SDS011;65179;47.786;19.138;2023-02-20T05:53:51;6.72;;;2.70;;
76351;SDS011;65179;47.786;19.138;2023-02-20T05:56:17;5.10;;;2.30;;
76351;SDS011;65179;47.786;19.138;2023-02-20T05:58:44;8.95;;;2.33;;
76351;SDS011;65179;47.786;19.138;2023-02-20T06:01:27;5.40;;;1.87;;
76351;SDS011;65179;47.786;19.138;2023-02-20T06:03:54;5.97;;;1.98;;
76351;SDS011;65179;47.786;19.138;2023-02-20T06:06:19;6.40;;;1.90;;
76351;SDS011;65179;47.786;19.138;2023-02-20T06:08:45;5.65;;;2.05;;
76351;SDS011;65179;47.786;19.138;2023-02-20T06:11:12;5.95;;;2.00;;
76351;SDS011;65179;47.786;19.138;2023-02-20T06:13:38;6.75;;;1.90;;
76351;SDS011;65179;47.786;19.138;2023-02-20T06:16:05;7.57;;;2.63;;
76351;SDS011;65179;47.786;19.138;2023-02-20T06:18:31;4.70;;;1.55;;
76351;SDS011;65179;47.786;19.138;2023-02-20T06:21:07;7.87;;;1.90;;
76351;SDS011;65179;47.786;19.138;2023-02-20T06:23:34;7.78;;;2.45;;
76351;SDS011;65179;47.786;19.138;2023-02-20T06:26:01;6.82;;;2.37;;
76351;SDS011;65179;47.786;19.138;2023-02-20T06:28:26;7.83;;;1.80;;
76351;SDS011;65179;47.786;19.138;2023-02-20T06:30:51;6.23;;;2.40;;
76351;SDS011;65179;47.786;19.138;2023-02-20T06:33:17;5.07;;;2.43;;
76351;SDS011;65179;47.786;19.138;2023-02-20T06:35:42;6.10;;;2.43;;
76351;SDS011;65179;47.786;19.138;2023-02-20T06:38:08;5.47;;;2.37;;
76351;SDS011;65179;47.786;19.138;2023-02-20T06:40:33;4.70;;;1.87;;
76351;SDS011;65179;47.786;19.138;2023-02-20T06:42:58;7.57;;;2.30;;
76351;SDS011;65179;47.786;19.138;2023-02-20T06:45:24;7.67;;;2.70;;
76351;SDS011;65179;47.786;19.138;2023-02-20T06:47:49;5.20;;;2.23;;
76351;SDS011;65179;47.786;19.138;2023-02-20T06:50:15;5.47;;;2.10;;
76351;SDS011;65179;47.786;19.138;2023-02-20T06:52:40;5.07;;;2.13;;
76351;SDS011;65179;47.786;19.138;2023-02-20T06:55:06;5.97;;;1.70;;
76351;SDS011;65179;47.786;19.138;2023-02-20T06:57:31;4.43;;;1.75;;
76351;SDS011;65179;47.786;19.138;2023-02-20T06:59:57;6.10;;;1.50;;
76351;SDS011;65179;47.786;19.138;2023-02-20T07:02:22;6.67;;;1.70;;
76351;SDS011;65179;47.786;19.138;2023-02-20T07:04:48;5.65;;;2.10;;
76351;SDS011;65179;47.786;19.138;2023-02-20T07:07:14;7.70;;;2.08;;
76351;SDS011;65179;47.786;19.138;2023-02-20T07:09:40;4.53;;;1.60;;
76351;SDS011;65179;47.786;19.138;2023-02-20T07:12:05;5.43;;;1.63;;
76351;SDS011;65179;47.786;19.138;2023-02-20T07:14:31;4.93;;;1.92;;
76351;SDS011;65179;47.786;19.138;2023-02-20T07:16:56;5.63;;;1.97;;
76351;SDS011;65179;47.786;19.138;2023-02-20T07:19:22;5.97;;;1.70;;
76351;SDS011;65179;47.786;19.138;2023-02-20T07:21:47;6.53;;;2.20;;
76351;SDS011;65179;47.786;19.138;2023-02-20T07:24:13;7.95;;;1.77;;
76351;SDS011;65179;47.786;19.138;2023-02-20T07:26:39;6.97;;;2.03;;
76351;SDS011;65179;47.786;19.138;2023-02-20T07:29:05;6.10;;;2.10;;
76351;SDS011;65179;47.786;19.138;2023-02-20T07:31:31;6.70;;;2.33;;
76351;SDS011;65179;47.786;19.138;2023-02-20T07:33:57;6.55;;;2.00;;
76351;SDS011;65179;47.786;19.138;2023-02-20T07:36:22;8.27;;;2.00;;
76351;SDS011;65179;47.786;19.138;2023-02-20T07:38:52;4.73;;;1.90;;
76351;SDS011;65179;47.786;19.138;2023-02-20T07:41:22;4.35;;;1.60;;
76351;SDS011;65179;47.786;19.138;2023-02-20T07:43:48;5.03;;;1.62;;
76351;SDS011;65179;47.786;19.138;2023-02-20T07:46:14;4.40;;;1.60;;
76351;SDS011;65179;47.786;19.138;2023-02-20T07:48:40;4.03;;;1.53;;
76351;SDS011;65179;47.786;19.138;2023-02-20T07:51:05;5.07;;;1.70;;
76351;SDS011;65179;47.786;19.138;2023-02-20T07:53:30;8.43;;;2.00;;
76351;SDS011;65179;47.786;19.138;2023-02-20T07:55:56;7.23;;;2.03;;
76351;SDS011;65179;47.786;19.138;2023-02-20T07:58:22;9.33;;;2.40;;
76351;SDS011;65179;47.786;19.138;2023-02-20T08:00:49;5.62;;;2.10;;
76351;SDS011;65179;47.786;19.138;2023-02-20T08:03:18;6.03;;;1.98;;
76351;SDS011;65179;47.786;19.138;2023-02-20T08:05:45;5.87;;;2.10;;
76351;SDS011;65179;47.786;19.138;2023-02-20T08:08:14;6.00;;;2.10;;
76351;SDS011;65179;47.786;19.138;2023-02-20T08:10:41;8.20;;;1.60;;
76351;SDS011;65179;47.786;19.138;2023-02-20T08:13:08;6.75;;;2.20;;
76351;SDS011;65179;47.786;19.138;2023-02-20T08:15:34;6.50;;;2.30;;
76351;SDS011;65179;47.786;19.138;2023-02-20T08:18:01;6.30;;;2.60;;
76351;SDS011;65179;47.786;19.138;2023-02-20T08:20:28;6.45;;;1.95;;
76351;SDS011;65179;47.786;19.138;2023-02-20T08:22:55;6.23;;;2.30;;
76351;SDS011;65179;47.786;19.138;2023-02-20T08:25:25;4.22;;;1.90;;
76351;SDS011;65179;47.786;19.138;2023-02-20T08:27:51;8.10;;;2.67;;
76351;SDS011;65179;47.786;19.138;2023-02-20T08:30:25;9.38;;;3.00;;
76351;SDS011;65179;47.786;19.138;2023-02-20T08:32:53;5.65;;;2.55;;
76351;SDS011;65179;47.786;19.138;2023-02-20T08:35:20;8.00;;;2.57;;
76351;SDS011;65179;47.786;19.138;2023-02-20T08:37:51;6.72;;;2.87;;
76351;SDS011;65179;47.786;19.138;2023-02-20T08:40:17;6.22;;;2.72;;
76351;SDS011;65179;47.786;19.138;2023-02-20T08:42:44;8.20;;;2.70;;
76351;SDS011;65179;47.786;19.138;2023-02-20T08:45:17;5.85;;;2.70;;
76351;SDS011;65179;47.786;19.138;2023-02-20T08:47:44;9.17;;;3.27;;
76351;SDS011;65179;47.786;19.138;2023-02-20T08:50:13;7.18;;;3.55;;
76351;SDS011;65179;47.786;19.138;2023-02-20T08:52:42;8.13;;;2.83;;
76351;SDS011;65179;47.786;19.138;2023-02-20T08:55:10;5.93;;;2.50;;
76351;SDS011;65179;47.786;19.138;2023-02-20T08:57:37;7.10;;;3.08;;
76351;SDS011;65179;47.786;19.138;2023-02-20T09:00:07;6.37;;;2.70;;
76351;SDS011;65179;47.786;19.138;2023-02-20T09:02:34;7.40;;;2.25;;
76351;SDS011;65179;47.786;19.138;2023-02-20T09:05:01;6.43;;;2.20;;
76351;SDS011;65179;47.786;19.138;2023-02-20T09:07:28;5.28;;;2.28;;
76351;SDS011;65179;47.786;19.138;2023-02-20T09:09:55;6.03;;;2.70;;
76351;SDS011;65179;47.786;19.138;2023-02-20T09:12:20;8.97;;;3.13;;
76351;SDS011;65179;47.786;19.138;2023-02-20T09:14:45;5.17;;;2.50;;
76351;SDS011;65179;47.786;19.138;2023-02-20T09:17:11;6.13;;;2.70;;
76351;SDS011;65179;47.786;19.138;2023-02-20T09:19:37;7.62;;;2.85;;
76351;SDS011;65179;47.786;19.138;2023-02-20T09:22:02;6.90;;;2.83;;
76351;SDS011;65179;47.786;19.138;2023-02-20T09:24:28;4.95;;;2.30;;
76351;SDS011;65179;47.786;19.138;2023-02-20T09:26:58;5.87;;;2.47;;
76351;SDS011;65179;47.786;19.138;2023-02-20T09:29:24;6.45;;;3.53;;
76351;SDS011;65179;47.786;19.138;2023-02-20T09:31:49;8.98;;;3.80;;
76351;SDS011;65179;47.786;19.138;2023-02-20T09:34:15;7.53;;;2.63;;
76351;SDS011;65179;47.786;19.138;2023-02-20T09:36:40;8.13;;;4.50;;
76351;SDS011;65179;47.786;19.138;2023-02-20T09:39:06;8.23;;;4.43;;
76351;SDS011;65179;47.786;19.138;2023-02-20T09:41:41;9.50;;;4.60;;
76351;SDS011;65179;47.786;19.138;2023-02-20T09:44:20;9.20;;;6.20;;
76351;SDS011;65179;47.786;19.138;2023-02-20T09:49:59;12.35;;;6.40;;
76351;SDS011;65179;47.786;19.138;2023-02-20T09:52:29;9.70;;;4.40;;
76351;SDS011;65179;47.786;19.138;2023-02-20T09:55:02;8.63;;;4.10;;
76351;SDS011;65179;47.786;19.138;2023-02-20T09:57:36;8.43;;;4.47;;
76351;SDS011;65179;47.786;19.138;2023-02-20T10:00:08;8.52;;;4.30;;
76351;SDS011;65179;47.786;19.138;2023-02-20T10:02:39;7.57;;;4.00;;
76351;SDS011;65179;47.786;19.138;2023-02-20T10:05:13;9.88;;;4.43;;
76351;SDS011;65179;47.786;19.138;2023-02-20T10:07:48;6.97;;;4.13;;
76351;SDS011;65179;47.786;19.138;2023-02-20T10:21:11;7.60;;;4.27;;
76351;SDS011;65179;47.786;19.138;2023-02-20T10:27:46;8.25;;;4.00;;
76351;SDS011;65179;47.786;19.138;2023-02-20T10:30:24;9.00;;;4.25;;
76351;SDS011;65179;47.786;19.138;2023-02-20T10:36:08;7.90;;;3.80;;
76351;SDS011;65179;47.786;19.138;2023-02-20T10:38:43;8.90;;;4.30;;
76351;SDS011;65179;47.786;19.138;2023-02-20T10:41:19;9.25;;;4.18;;
76351;SDS011;65179;47.786;19.138;2023-02-20T10:43:58;7.28;;;4.07;;
76351;SDS011;65179;47.786;19.138;2023-02-20T10:47:03;8.20;;;3.90;;
76351;SDS011;65179;47.786;19.138;2023-02-20T10:49:28;10.90;;;3.90;;
76351;SDS011;65179;47.786;19.138;2023-02-20T10:52:12;8.57;;;4.07;;
76351;SDS011;65179;47.786;19.138;2023-02-20T10:54:44;7.78;;;3.90;;
76351;SDS011;65179;47.786;19.138;2023-02-20T10:57:26;7.20;;;3.83;;
76351;SDS011;65179;47.786;19.138;2023-02-20T11:02:33;6.93;;;3.60;;
76351;SDS011;65179;47.786;19.138;2023-02-20T11:05:12;6.82;;;3.90;;
76351;SDS011;65179;47.786;19.138;2023-02-20T11:07:42;10.35;;;3.80;;
76351;SDS011;65179;47.786;19.138;2023-02-20T11:10:08;9.23;;;4.10;;
76351;SDS011;65179;47.786;19.138;2023-02-20T11:12:36;7.47;;;3.87;;
76351;SDS011;65179;47.786;19.138;2023-02-20T11:15:21;7.28;;;3.50;;
76351;SDS011;65179;47.786;19.138;2023-02-20T11:17:51;6.90;;;3.80;;
76351;SDS011;65179;47.786;19.138;2023-02-20T11:22:56;5.50;;;3.50;;
76351;SDS011;65179;47.786;19.138;2023-02-20T11:27:53;7.47;;;3.72;;
76351;SDS011;65179;47.786;19.138;2023-02-20T11:30:29;6.12;;;3.62;;
76351;SDS011;65179;47.786;19.138;2023-02-20T11:33:03;5.80;;;3.40;;
76351;SDS011;65179;47.786;19.138;2023-02-20T11:35:38;6.12;;;3.12;;
76351;SDS011;65179;47.786;19.138;2023-02-20T11:38:16;6.00;;;3.45;;
76351;SDS011;65179;47.786;19.138;2023-02-20T11:46:16;5.75;;;3.50;;
76351;SDS011;65179;47.786;19.138;2023-02-20T11:49:05;6.75;;;3.60;;
76351;SDS011;65179;47.786;19.138;2023-02-20T11:56:54;8.13;;;3.33;;
76351;SDS011;65179;47.786;19.138;2023-02-20T11:59:41;7.85;;;3.72;;
76351;SDS011;65179;47.786;19.138;2023-02-20T12:04:40;8.95;;;3.40;;
76351;SDS011;65179;47.786;19.138;2023-02-20T12:07:16;6.70;;;3.40;;
76351;SDS011;65179;47.786;19.138;2023-02-20T12:09:56;7.93;;;3.67;;
76351;SDS011;65179;47.786;19.138;2023-02-20T12:12:29;7.60;;;3.30;;
76351;SDS011;65179;47.786;19.138;2023-02-20T12:14:56;11.45;;;3.80;;
76351;SDS011;65179;47.786;19.138;2023-02-20T12:17:32;7.12;;;4.00;;
76351;SDS011;65179;47.786;19.138;2023-02-20T12:26:06;8.13;;;3.72;;
76351;SDS011;65179;47.786;19.138;2023-02-20T12:31:44;8.65;;;4.05;;
76351;SDS011;65179;47.786;19.138;2023-02-20T12:35:03;7.60;;;3.80;;
76351;SDS011;65179;47.786;19.138;2023-02-20T12:42:56;7.07;;;3.58;;
76351;SDS011;65179;47.786;19.138;2023-02-20T12:45:41;11.45;;;3.80;;
76351;SDS011;65179;47.786;19.138;2023-02-20T12:50:54;6.77;;;3.57;;
76351;SDS011;65179;47.786;19.138;2023-02-20T13:01:51;8.35;;;2.90;;
76351;SDS011;65179;47.786;19.138;2023-02-20T13:06:50;6.45;;;3.17;;
76351;SDS011;65179;47.786;19.138;2023-02-20T13:09:27;7.87;;;2.87;;
76351;SDS011;65179;47.786;19.138;2023-02-20T13:12:00;7.90;;;2.95;;
76351;SDS011;65179;47.786;19.138;2023-02-20T13:14:33;8.57;;;3.30;;
76351;SDS011;65179;47.786;19.138;2023-02-20T13:19:35;6.55;;;3.70;;
76351;SDS011;65179;47.786;19.138;2023-02-20T13:22:08;8.07;;;3.42;;
76351;SDS011;65179;47.786;19.138;2023-02-20T13:24:37;7.28;;;3.42;;
76351;SDS011;65179;47.786;19.138;2023-02-20T13:27:07;7.07;;;3.37;;
76351;SDS011;65179;47.786;19.138;2023-02-20T13:29:38;8.32;;;3.78;;
76351;SDS011;65179;47.786;19.138;2023-02-20T13:32:25;6.68;;;3.28;;
76351;SDS011;65179;47.786;19.138;2023-02-20T13:38:13;7.35;;;3.87;;
76351;SDS011;65179;47.786;19.138;2023-02-20T13:40:51;8.02;;;3.67;;
76351;SDS011;65179;47.786;19.138;2023-02-20T13:43:29;7.40;;;3.70;;
76351;SDS011;65179;47.786;19.138;2023-02-20T13:53:47;6.32;;;3.22;;
76351;SDS011;65179;47.786;19.138;2023-02-20T13:56:41;6.37;;;2.95;;
76351;SDS011;65179;47.786;19.138;2023-02-20T13:59:14;7.50;;;3.53;;
76351;SDS011;65179;47.786;19.138;2023-02-20T14:01:55;7.23;;;3.30;;
76351;SDS011;65179;47.786;19.138;2023-02-20T14:04:26;6.50;;;3.12;;
76351;SDS011;65179;47.786;19.138;2023-02-20T14:06:53;7.62;;;3.25;;
76351;SDS011;65179;47.786;19.138;2023-02-20T14:09:25;8.63;;;3.55;;
76351;SDS011;65179;47.786;19.138;2023-02-20T14:12:00;10.40;;;3.47;;
76351;SDS011;65179;47.786;19.138;2023-02-20T14:14:34;7.40;;;3.73;;
76351;SDS011;65179;47.786;19.138;2023-02-20T14:17:12;6.70;;;3.28;;
76351;SDS011;65179;47.786;19.138;2023-02-20T14:19:44;6.60;;;3.00;;
76351;SDS011;65179;47.786;19.138;2023-02-20T14:24:45;7.40;;;3.10;;
76351;SDS011;65179;47.786;19.138;2023-02-20T14:27:25;7.97;;;3.10;;
76351;SDS011;65179;47.786;19.138;2023-02-20T14:30:07;5.95;;;2.75;;
76351;SDS011;65179;47.786;19.138;2023-02-20T14:32:46;7.18;;;2.97;;
76351;SDS011;65179;47.786;19.138;2023-02-20T14:41:11;7.40;;;2.80;;
76351;SDS011;65179;47.786;19.138;2023-02-20T14:43:43;5.87;;;2.70;;
76351;SDS011;65179;47.786;19.138;2023-02-20T14:46:24;6.70;;;2.90;;
76351;SDS011;65179;47.786;19.138;2023-02-20T14:49:07;6.20;;;2.67;;
76351;SDS011;65179;47.786;19.138;2023-02-20T14:51:37;5.62;;;2.83;;
76351;SDS011;65179;47.786;19.138;2023-02-20T14:54:22;8.10;;;2.80;;
76351;SDS011;65179;47.786;19.138;2023-02-20T14:56:50;8.85;;;2.90;;
76351;SDS011;65179;47.786;19.138;2023-02-20T14:59:28;7.90;;;3.35;;
76351;SDS011;65179;47.786;19.138;2023-02-20T15:02:01;8.35;;;3.33;;
76351;SDS011;65179;47.786;19.138;2023-02-20T15:04:45;6.10;;;2.83;;
76351;SDS011;65179;47.786;19.138;2023-02-20T15:07:19;6.93;;;3.10;;
76351;SDS011;65179;47.786;19.138;2023-02-20T15:09:47;7.90;;;3.45;;
76351;SDS011;65179;47.786;19.138;2023-02-20T15:12:22;7.10;;;3.28;;
76351;SDS011;65179;47.786;19.138;2023-02-20T15:14:59;10.88;;;4.00;;
76351;SDS011;65179;47.786;19.138;2023-02-20T15:17:28;9.20;;;3.50;;
76351;SDS011;65179;47.786;19.138;2023-02-20T15:19:56;7.20;;;2.90;;
76351;SDS011;65179;47.786;19.138;2023-02-20T15:22:26;13.40;;;4.20;;
76351;SDS011;65179;47.786;19.138;2023-02-20T15:28:08;7.00;;;2.97;;
76351;SDS011;65179;47.786;19.138;2023-02-20T15:33:30;8.50;;;3.27;;
76351;SDS011;65179;47.786;19.138;2023-02-20T15:36:01;8.38;;;3.60;;
76351;SDS011;65179;47.786;19.138;2023-02-20T15:38:28;10.40;;;3.90;;
76351;SDS011;65179;47.786;19.138;2023-02-20T15:40:57;9.35;;;3.10;;
76351;SDS011;65179;47.786;19.138;2023-02-20T15:43:25;7.18;;;3.25;;
76351;SDS011;65179;47.786;19.138;2023-02-20T15:45:51;7.80;;;3.30;;
76351;SDS011;65179;47.786;19.138;2023-02-20T15:48:17;7.85;;;3.03;;
76351;SDS011;65179;47.786;19.138;2023-02-20T15:50:43;8.27;;;3.33;;
76351;SDS011;65179;47.786;19.138;2023-02-20T15:53:23;8.17;;;3.33;;
76351;SDS011;65179;47.786;19.138;2023-02-20T15:55:51;8.55;;;3.60;;
76351;SDS011;65179;47.786;19.138;2023-02-20T15:58:26;6.47;;;2.97;;
76351;SDS011;65179;47.786;19.138;2023-02-20T16:00:54;8.23;;;3.55;;
76351;SDS011;65179;47.786;19.138;2023-02-20T16:03:23;9.35;;;3.62;;
76351;SDS011;65179;47.786;19.138;2023-02-20T16:05:51;8.05;;;3.83;;
76351;SDS011;65179;47.786;19.138;2023-02-20T16:08:17;9.27;;;3.97;;
76351;SDS011;65179;47.786;19.138;2023-02-20T16:10:43;6.72;;;3.80;;
76351;SDS011;65179;47.786;19.138;2023-02-20T16:13:42;7.57;;;3.90;;
76351;SDS011;65179;47.786;19.138;2023-02-20T16:16:11;10.05;;;4.35;;
76351;SDS011;65179;47.786;19.138;2023-02-20T16:18:42;9.55;;;4.55;;
76351;SDS011;65179;47.786;19.138;2023-02-20T16:21:08;10.57;;;4.50;;
76351;SDS011;65179;47.786;19.138;2023-02-20T16:23:36;14.27;;;5.70;;
76351;SDS011;65179;47.786;19.138;2023-02-20T16:26:04;12.50;;;6.40;;
76351;SDS011;65179;47.786;19.138;2023-02-20T16:28:31;11.57;;;5.70;;
76351;SDS011;65179;47.786;19.138;2023-02-20T16:30:56;17.60;;;6.68;;
76351;SDS011;65179;47.786;19.138;2023-02-20T16:33:22;15.40;;;6.57;;
76351;SDS011;65179;47.786;19.138;2023-02-20T16:35:48;16.77;;;5.57;;
76351;SDS011;65179;47.786;19.138;2023-02-20T16:38:16;19.02;;;7.10;;
76351;SDS011;65179;47.786;19.138;2023-02-20T16:40:42;13.43;;;6.18;;
76351;SDS011;65179;47.786;19.138;2023-02-20T16:43:11;14.52;;;5.37;;
76351;SDS011;65179;47.786;19.138;2023-02-20T16:45:37;14.55;;;6.75;;
76351;SDS011;65179;47.786;19.138;2023-02-20T16:48:07;10.37;;;4.70;;
76351;SDS011;65179;47.786;19.138;2023-02-20T16:50:39;10.65;;;4.20;;
76351;SDS011;65179;47.786;19.138;2023-02-20T16:53:04;11.68;;;4.20;;
76351;SDS011;65179;47.786;19.138;2023-02-20T16:55:36;8.82;;;4.57;;
76351;SDS011;65179;47.786;19.138;2023-02-20T16:58:03;9.15;;;4.00;;
76351;SDS011;65179;47.786;19.138;2023-02-20T17:00:33;11.90;;;4.77;;
76351;SDS011;65179;47.786;19.138;2023-02-20T17:03:09;10.68;;;4.43;;